Search for airport 
image banner adimage banner adimage banner ad
image banner ad

EBBR - Brussels/Brussels-National

Located in Brussels, Belgium

ICAO - EBBR, IATA - BRU

Data provided by Airmate  

General information

Coordinates: N50°54'5" E4°29'4"
Elevation is 175 feet MSL.
Magnetic variation is 1° East
Rated:
View ratings:
[VIEW]
View others Airports in Brussels-Capital Region

Operational data

Special qualification required
Current time UTC:
Current local time:
Weather
METAR: EBBR 082250Z 17009KT CAVOK 14/09 Q1007 NOSIG
TAF: TAF EBBR 081710Z 0818/0924 19008KT 9999 SCT040 PROB30 TEMPO 0917/0922 20022G35KT 2500 TSRA
View NOTAMs / SUP AIP / TFR affecting this airport [VIEW]
Communications frequencies: [VIEW]

Runways:

RWY identifierQFULength (ft)Width (ft)SurfaceLDA (ft)
07L65°11936148ASPH10991
25R245°11936148ASPH10955
0114°9800164ASPH9649
19194°9800164ASPH9078
07R70°10535148ASPH10135
25L250°10535148ASPH10535

Airport contact information

Address: Brussels Belgium

Handlers

Aviapartner Executive

Aviapartner Executive

Execujet Brussels

Execujet Brussels
[VIEW][VIEW]
+3227205880

Other aviation service providers

Aviation club (not for profit)

Cae Oxford Aviation Academy Brussels

Cae Oxford Aviation Academy Brussels

Tui Fly Academy Brussels

Tui Fly Academy Brussels

Satellite view of EBBR